Loading…
Loading…
Loading…
Loading…
Loading parcel record…
Barnegat Twp, NJ·Ocean County
Owner email, phone, and authorized agent are available on Pro.
| Date | Price | Book / Page |
|---|---|---|
| 1/28/2022 | $499,195 | 18890 / 100 |
| 9/20/2021 | — | 18685 / 1049 |
| 9/1/2021 | $92,500 |
| 18684 / 228 |
| 4/25/2010 | $56,392 | 14617 / 136 |
| 1/11/2001 | $312,000 | 10284 / 761 |
| 2/5/1987 | $26,600 | 4512 / 212 |
Activity captured from the county clerk's daily feed. Includes deeds, mortgages, and other recorded filings.
| Date | Type | Grantor | Grantee | Book / Page | Instrument |
|---|---|---|---|---|---|
| 2026-04-28 | NOTSETDT | — | — | 20355 / 524 | 2026032636 |
| 2026-04-21 | NOTSETDT | — | — | 20348 / 1116 | 2026030625 |
| 2024-11-22 | MORTGAGE | — | — | 19856 / 1760 | 2024087498 |
| 2024-11-22 | DEED | — | — | 19856 / 1752 | 2024087497 |
| 2024-10-30 | DISCHARGE OF MORTGAGE | — | — | 19833 / 1040 | 2024080678 |
| 2023-03-27 | MORTGAGE | — | — | 19335 / 235 | 2023022816 |
| 2023-03-27 | DEED | — | — | 19335 / 227 | 2023022815 |
| 2023-02-01 | MORTGAGE | — | — | 19290 / 775 | 2023008154 |
| 2023-02-01 | DEED | — | — | 19290 / 767 | 2023008153 |
| 2023-01-27 | MORTGAGE | — | — | 19287 / 479 | 2023007090 |
| 2023-01-27 | DEED | — | — | 19287 / 471 | 2023007089 |
| 2022-12-19 | MORTGAGE | — | — | 19254 / 1834 | 2022128902 |
| 2022-12-19 | DEED | — | — | 19254 / 1826 | 2022128901 |
| 2022-12-06 | MORTGAGE | — | — | 19242 / 1657 | 2022124736 |
| 2022-12-06 | DEED | — | — | 19242 / 1650 | 2022124735 |
| 2022-11-21 | MORTGAGE | — | — | 19231 / 1077 | 2022120954 |
| 2022-11-21 | DEED | — | — | 19231 / 1069 | 2022120953 |
| 2022-11-14 | NOTICE OF SETTLEMENT DOUBLE TRANSACTION | — | — | 19223 / 1158 | 2022118475 |
| 2022-11-07 | NOTICE OF SETTLEMENT DOUBLE TRANSACTION | — | — | 19217 / 978 | 2022116469 |
| 2022-11-07 | NOTICE OF SETTLEMENT DOUBLE TRANSACTION | — | — | 19217 / 843 | 2022116444 |
| 2022-10-12 | NOTICE OF SETTLEMENT DOUBLE TRANSACTION | — | — | 19193 / 63 | 2022108546 |
| 2022-10-07 | DEED | — | — | 19190 / 394 | 2022107611 |
| 2022-09-30 | MORTGAGE | — | — | 19182 / 1914 | 2022105422 |
| 2022-09-30 | DEED | — | — | 19182 / 1906 | 2022105421 |
| 2022-09-28 | MORTGAGE | — | — | 19179 / 960 | 2022104351 |
| 2022-09-28 | DEED | — | — | 19179 / 952 | 2022104350 |
| 2022-09-26 | MORTGAGE | — | — | 19176 / 402 | 2022103262 |
| 2022-09-26 | DEED | — | — | 19176 / 396 | 2022103261 |
| 2022-08-22 | NOTICE OF SETTLEMENT DOUBLE TRANSACTION | — | — | 19141 / 649 | 2022092132 |
| 2022-08-04 | NOTICE OF SETTLEMENT DOUBLE TRANSACTION | — | — | 19122 / 1825 | 2022086409 |